createdAt,value
2017-07-28T00:00:39.118Z,49.78
2017-07-28T00:02:47.104Z,49.78
2017-07-28T00:04:55.286Z,49.79
2017-07-28T00:07:04.822Z,49.80
2017-07-28T00:09:15.789Z,49.81
2017-07-28T00:11:22.562Z,49.82
2017-07-28T00:30:48.588Z,49.89
2017-07-28T00:32:59.737Z,49.90
2017-07-28T00:52:21.503Z,49.96
2017-07-28T00:54:31.333Z,49.97
2017-07-28T00:56:39.229Z,49.97
2017-07-28T00:58:49.426Z,49.98
2017-07-28T01:00:58.302Z,49.96
2017-07-28T01:03:09.677Z,49.98
2017-07-28T01:22:33.141Z,49.98
2017-07-28T01:24:40.741Z,49.99
2017-07-28T01:26:50.093Z,50.01
2017-07-28T01:29:00.013Z,50.01
2017-07-28T01:31:07.810Z,50.00
2017-07-28T01:50:31.272Z,49.97
2017-07-28T01:52:42.788Z,50.01
2017-07-28T01:54:48.706Z,50.01
2017-07-28T01:56:57.422Z,50.00
2017-07-28T01:59:07.731Z,50.01
2017-07-28T02:01:18.679Z,49.98
2017-07-28T02:03:27.568Z,49.99
2017-07-28T02:05:38.333Z,49.98
2017-07-28T02:07:48.278Z,49.97
2017-07-28T02:09:57.577Z,49.97
2017-07-28T02:12:09.192Z,49.97
2017-07-28T02:14:18.214Z,49.95
2017-07-28T02:16:24.984Z,49.95
2017-07-28T02:18:35.474Z,49.95
2017-07-28T02:20:46.210Z,49.95
2017-07-28T02:22:54.107Z,49.96
2017-07-28T02:25:03.845Z,49.96
2017-07-28T02:27:12.372Z,49.95
2017-07-28T02:29:19.344Z,49.95
2017-07-28T02:31:27.320Z,49.95
2017-07-28T02:33:36.295Z,49.96
2017-07-28T02:35:45.489Z,49.94
2017-07-28T02:37:55.122Z,49.94
2017-07-28T02:40:02.100Z,49.93
2017-07-28T02:42:12.190Z,49.93
2017-07-28T02:44:24.164Z,49.90
2017-07-28T02:46:31.324Z,49.92
2017-07-28T02:48:38.706Z,49.91
2017-07-28T02:50:49.094Z,49.92
2017-07-28T02:52:56.346Z,49.89
2017-07-28T02:55:03.038Z,49.91
2017-07-28T02:57:13.013Z,49.92
2017-07-28T02:59:22.986Z,49.91
2017-07-28T03:01:33.960Z,49.88
2017-07-28T03:03:42.935Z,49.87
2017-07-28T03:05:52.910Z,49.91
2017-07-28T03:08:03.882Z,49.88
2017-07-28T03:10:11.856Z,49.89
2017-07-28T03:12:21.039Z,49.91
2017-07-28T03:14:27.501Z,49.88
2017-07-28T03:16:37.651Z,49.88
2017-07-28T03:18:47.699Z,49.89
2017-07-28T03:20:53.962Z,49.88
2017-07-28T03:23:06.159Z,49.88
2017-07-28T03:25:15.674Z,49.86
2017-07-28T03:27:25.435Z,49.86
2017-07-28T03:29:33.944Z,49.87
2017-07-28T03:31:43.602Z,49.88
2017-07-28T03:33:52.301Z,49.89
2017-07-28T03:36:00.298Z,49.88
2017-07-28T03:38:09.222Z,49.87
2017-07-28T03:40:18.040Z,49.87
2017-07-28T03:42:29.008Z,49.86
2017-07-28T03:44:36.450Z,49.88
2017-07-28T03:46:48.420Z,49.86
2017-07-28T03:48:57.392Z,49.87
2017-07-28T03:51:07.051Z,49.88
2017-07-28T03:53:18.940Z,49.88
2017-07-28T03:55:31.314Z,49.89
2017-07-28T03:57:41.697Z,49.87
2017-07-28T03:59:51.236Z,49.87
2017-07-28T04:02:03.236Z,49.86
2017-07-28T04:04:12.661Z,49.84
2017-07-28T04:06:20.899Z,49.83
2017-07-28T04:08:28.160Z,49.85
2017-07-28T04:10:35.023Z,49.84
2017-07-28T04:12:45.108Z,49.84
2017-07-28T04:14:57.082Z,49.84
2017-07-28T04:17:06.908Z,49.83
2017-07-28T04:19:17.030Z,49.84
2017-07-28T04:21:28.004Z,49.83
2017-07-28T04:23:38.790Z,49.79
2017-07-28T04:25:48.532Z,49.78
2017-07-28T04:27:57.940Z,49.79
2017-07-28T04:30:09.900Z,49.78
2017-07-28T04:32:17.874Z,49.78
2017-07-28T04:34:27.849Z,49.76
2017-07-28T04:36:39.385Z,49.76
2017-07-28T04:38:47.588Z,49.75
2017-07-28T04:40:59.770Z,49.72
2017-07-28T04:43:08.756Z,49.71
2017-07-28T04:45:17.632Z,49.73
2017-07-28T04:47:27.274Z,49.70
2017-07-28T04:49:34.668Z,49.68
2017-07-28T04:51:44.646Z,49.68
2017-07-28T04:53:56.386Z,49.67
2017-07-28T04:56:03.644Z,49.66
2017-07-28T04:58:11.464Z,49.64
2017-07-28T05:17:37.336Z,49.55
2017-07-28T05:19:47.356Z,49.52
2017-07-28T05:39:14.184Z,48.13
2017-07-28T05:41:27.508Z,47.92
2017-07-28T06:00:55.275Z,47.90
2017-07-28T06:20:15.156Z,47.87
2017-07-28T06:22:26.023Z,47.77
2017-07-28T06:24:31.539Z,47.74
2017-07-28T06:26:42.554Z,47.81
2017-07-28T06:28:56.550Z,47.83
